Time;durP1;ratioP1;P1;durP2;ratioP2;P2;SDS_P1;SDS_P2;PMS_P1;PMS_P2;Temp;Humidity;BMP_temperature;BMP_pressure;BME280_temperature;BME280_humidity;BME280_pressure;Samples;Min_cycle;Max_cycle;Signal;HPM_P1;HPM_P2
2021/11/15 00:01:31;;;;;;;37.35;24.35;;;;;;;6.97;69.93;94004.47;5111303;28;20023;-46
2021/11/15 00:03:57;;;;;;;38.13;25.10;;;;;;;6.80;70.40;94004.56;5110848;28;20070;-47
2021/11/15 00:06:23;;;;;;;37.60;23.52;;;;;;;6.84;70.73;94007.78;5110798;28;20027;-46
2021/11/15 00:08:48;;;;;;;36.00;24.80;;;;;;;6.86;70.36;94007.28;5110887;28;20553;-47
2021/11/15 00:11:13;;;;;;;36.03;23.67;;;;;;;6.92;70.85;94004.50;5110819;28;20038;-44
2021/11/15 00:13:39;;;;;;;37.17;23.65;;;;;;;6.85;70.38;94011.28;5111128;28;20035;-45
2021/11/15 00:16:05;;;;;;;31.20;22.30;;;;;;;6.85;70.89;94008.53;5110943;28;20027;-46
2021/11/15 00:18:30;;;;;;;33.83;21.40;;;;;;;6.87;70.55;94008.78;5111033;28;20024;-45
2021/11/15 00:20:56;;;;;;;34.67;22.42;;;;;;;6.95;70.65;93996.00;5110994;28;20397;-45
2021/11/15 00:23:22;;;;;;;32.55;22.67;;;;;;;7.02;70.35;94006.41;5110961;28;20062;-44
2021/11/15 00:25:47;;;;;;;32.92;21.83;;;;;;;6.84;70.36;93990.59;5102790;28;20028;-45
2021/11/15 00:28:13;;;;;;;32.85;21.60;;;;;;;7.02;70.28;94002.94;5100686;28;20776;-46
2021/11/15 00:30:38;;;;;;;36.78;23.98;;;;;;;7.07;69.95;94002.13;5110685;28;20481;-47
2021/11/15 00:33:05;;;;;;;33.40;23.10;;;;;;;6.98;70.15;94011.44;5110837;28;20576;-46
2021/11/15 00:35:30;;;;;;;40.45;24.08;;;;;;;6.89;70.09;94003.50;5092419;28;20470;-47
2021/11/15 00:37:56;;;;;;;36.22;22.73;;;;;;;6.87;70.58;94012.25;5110663;28;20024;-46
2021/11/15 00:40:22;;;;;;;39.42;25.00;;;;;;;6.84;70.28;94007.06;5110820;28;20035;-45
2021/11/15 00:42:48;;;;;;;40.38;25.80;;;;;;;6.86;70.94;93999.78;5110090;28;20572;-46
2021/11/15 00:45:15;;;;;;;39.75;23.70;;;;;;;6.98;70.25;93996.94;5110588;28;20043;-46
2021/11/15 00:47:40;;;;;;;41.75;25.73;;;;;;;6.90;70.69;93999.53;5110787;28;20103;-46
2021/11/15 00:50:08;;;;;;;36.08;23.63;;;;;;;6.94;71.01;93993.75;5110286;28;20051;-46
2021/11/15 00:52:33;;;;;;;35.92;22.75;;;;;;;7.11;70.07;93991.59;5110733;28;20023;-46
2021/11/15 00:54:58;;;;;;;32.92;22.67;;;;;;;7.03;70.20;93994.16;5110597;28;20424;-46
2021/11/15 00:57:24;;;;;;;36.15;22.95;;;;;;;7.02;70.27;93998.16;5110678;28;20027;-45
2021/11/15 00:59:49;;;;;;;34.33;21.33;;;;;;;6.90;70.48;94005.00;5110319;28;20401;-45
2021/11/15 01:02:15;;;;;;;36.17;22.40;;;;;;;6.96;70.37;93999.47;5110136;28;20035;-44
2021/11/15 01:04:41;;;;;;;34.03;22.13;;;;;;;6.95;70.01;93998.75;5110569;28;20020;-44
2021/11/15 01:07:06;;;;;;;31.23;19.45;;;;;;;6.99;70.05;93992.97;5110245;28;20103;-44
2021/11/15 01:09:32;;;;;;;31.55;20.98;;;;;;;6.91;69.80;93997.53;5110527;28;20028;-44
2021/11/15 01:11:58;;;;;;;36.22;23.45;;;;;;;6.97;70.14;94004.47;5110076;28;20443;-46
2021/11/15 01:14:23;;;;;;;29.17;21.15;;;;;;;7.04;69.51;94006.63;5110139;28;20012;-46
2021/11/15 01:16:50;;;;;;;28.08;19.88;;;;;;;6.96;69.24;93996.72;5110421;28;20031;-45
2021/11/15 01:19:16;;;;;;;31.15;21.10;;;;;;;6.68;70.11;93985.97;5110392;28;20019;-44
2021/11/15 01:21:42;;;;;;;30.40;20.55;;;;;;;6.78;70.13;93992.63;5110150;28;20046;-45
2021/11/15 01:24:08;;;;;;;27.33;18.50;;;;;;;6.73;70.20;93990.69;5110227;28;20023;-45
2021/11/15 01:26:34;;;;;;;29.90;19.02;;;;;;;6.80;70.03;93984.63;5109981;28;20039;-45
2021/11/15 01:28:59;;;;;;;29.52;20.27;;;;;;;6.67;70.58;93990.72;5110334;28;20397;-45
2021/11/15 01:31:25;;;;;;;30.40;20.15;;;;;;;6.71;71.06;93984.97;5109938;28;20412;-44
2021/11/15 01:33:50;;;;;;;28.48;19.05;;;;;;;6.53;71.46;93991.06;5110283;28;20069;-45
2021/11/15 01:36:16;;;;;;;32.28;21.35;;;;;;;6.69;71.08;93990.22;5109862;28;20019;-46
2021/11/15 01:38:41;;;;;;;27.70;19.25;;;;;;;6.67;70.25;93985.22;5109936;28;20027;-45
2021/11/15 01:41:07;;;;;;;28.05;19.00;;;;;;;6.63;70.29;93984.00;5108904;28;20027;-44
2021/11/15 01:43:33;;;;;;;30.77;19.73;;;;;;;6.64;70.79;93980.00;5113390;28;20235;-44
2021/11/15 01:45:58;;;;;;;45.03;20.17;;;;;;;6.60;70.79;93985.78;5095196;28;20064;-45
2021/11/15 01:48:24;;;;;;;33.30;21.40;;;;;;;6.27;71.60;93964.06;5113540;28;20022;-44
2021/11/15 01:50:50;;;;;;;35.55;24.05;;;;;;;6.45;71.36;93988.13;5113869;28;20039;-44
2021/11/15 01:53:16;;;;;;;51.83;32.25;;;;;;;6.47;71.50;93990.38;5113672;28;20429;-45
2021/11/15 01:55:43;;;;;;;32.55;21.13;;;;;;;6.38;71.80;93998.91;5113686;28;20034;-45
2021/11/15 01:58:11;;;;;;;51.08;30.33;;;;;;;6.36;71.57;94001.41;5113125;28;20027;-46
2021/11/15 02:00:51;;;;;;;33.92;21.42;;;;;;;6.29;72.19;93996.44;5113581;28;20019;-47
2021/11/15 02:03:19;;;;;;;37.75;23.73;;;;;;;6.36;71.88;93996.66;5113471;28;20046;-43
2021/11/15 02:05:45;;;;;;;33.25;21.88;;;;;;;6.42;71.21;93991.88;5113298;28;20022;-45
2021/11/15 02:08:11;;;;;;;30.40;20.08;;;;;;;6.32;71.58;93990.72;5112503;28;20554;-44
2021/11/15 02:10:37;;;;;;;27.55;18.92;;;;;;;6.25;71.54;93991.25;5112971;28;20016;-44
2021/11/15 02:13:03;;;;;;;31.05;18.75;;;;;;;6.41;71.24;93993.13;5112841;28;20164;-45
2021/11/15 02:15:28;;;;;;;31.35;20.20;;;;;;;6.48;70.96;93989.84;5112590;28;20812;-44
2021/11/15 02:17:54;;;;;;;30.73;19.83;;;;;;;6.28;71.47;93990.22;5112662;28;20024;-44
2021/11/15 02:20:24;;;;;;;32.22;21.70;;;;;;;6.26;72.03;93986.50;5112405;28;20012;-47
2021/11/15 02:22:51;;;;;;;35.53;22.70;;;;;;;6.35;71.97;93984.19;5112362;28;20530;-46
2021/11/15 02:25:19;;;;;;;34.15;21.42;;;;;;;6.39;71.69;93981.19;5112328;28;20015;-47
2021/11/15 02:27:45;;;;;;;31.92;21.33;;;;;;;6.43;71.64;93978.94;5112693;28;20107;-45
2021/11/15 02:30:17;;;;;;;33.45;21.10;;;;;;;6.50;71.29;93975.63;5111987;28;20107;-45
2021/11/15 02:32:43;;;;;;;30.15;18.80;;;;;;;6.59;70.78;93987.03;5112800;28;20408;-43
2021/11/15 02:35:09;;;;;;;30.75;17.60;;;;;;;6.66;69.77;93985.72;5112831;28;20076;-45
2021/11/15 02:37:36;;;;;;;30.35;18.42;;;;;;;6.57;69.32;93986.03;5112540;28;20028;-45
2021/11/15 02:40:05;;;;;;;30.85;18.42;;;;;;;6.66;69.32;93983.00;5112512;28;20103;-47
2021/11/15 02:42:30;;;;;;;;;;;;;;;6.51;69.50;93993.56;5094892;28;20416;-44
2021/11/15 02:44:56;;;;;;;25.50;15.95;;;;;;;6.49;69.77;93994.09;5112229;28;19908;-46
2021/11/15 02:47:21;;;;;;;27.77;17.92;;;;;;;6.61;69.01;94000.22;5112500;28;20032;-47
2021/11/15 02:49:47;;;;;;;27.35;17.80;;;;;;;6.58;69.11;94002.00;5112572;28;20026;-47
2021/11/15 02:52:15;;;;;;;24.08;16.27;;;;;;;6.40;68.86;93999.13;5112543;28;20031;-48
2021/11/15 02:54:40;;;;;;;25.13;17.30;;;;;;;6.39;69.68;94003.88;5112246;28;20424;-48
2021/11/15 02:57:09;;;;;;;26.77;17.98;;;;;;;6.45;69.46;94009.34;5112574;28;20031;-45
2021/11/15 02:59:34;;;;;;;26.45;17.75;;;;;;;6.43;69.84;94006.34;5112499;28;20023;-47
2021/11/15 03:02:00;;;;;;;25.23;17.42;;;;;;;6.31;69.77;93997.44;5112269;28;20577;-46
2021/11/15 03:04:25;;;;;;;25.45;16.75;;;;;;;6.32;69.45;94009.16;5112396;28;20029;-47
2021/11/15 03:06:51;;;;;;;25.33;16.40;;;;;;;6.30;69.63;94008.94;5112153;28;20019;-48
2021/11/15 03:09:16;;;;;;;24.70;16.63;;;;;;;6.26;69.53;94003.69;5112306;28;20484;-46
2021/11/15 03:11:42;;;;;;;26.27;16.92;;;;;;;6.25;68.85;93990.50;5112255;28;20476;-47
2021/11/15 03:14:07;;;;;;;26.23;16.55;;;;;;;6.30;69.72;94000.69;5111744;28;20037;-47
2021/11/15 03:16:32;;;;;;;26.95;17.10;;;;;;;6.41;69.32;94000.63;5111896;28;20051;-46
2021/11/15 03:18:58;;;;;;;27.80;17.85;;;;;;;6.40;68.76;94005.38;5112010;28;20026;-47
2021/11/15 03:21:24;;;;;;;27.15;17.48;;;;;;;6.31;69.50;93991.97;5112089;28;20024;-46
2021/11/15 03:23:52;;;;;;;24.67;17.08;;;;;;;6.21;69.64;93982.56;5111968;28;20093;-46
2021/11/15 03:26:19;;;;;;;25.08;16.77;;;;;;;6.32;69.76;93993.47;5111695;28;20428;-46
2021/11/15 03:28:49;;;;;;;21.95;15.25;;;;;;;6.40;69.05;93988.91;5111731;28;20058;-46
2021/11/15 03:31:41;;;;;;;20.40;14.18;;;;;;;6.32;68.76;93989.97;5111613;28;20572;-47
2021/11/15 03:34:11;;;;;;;23.77;15.98;;;;;;;6.20;69.70;93994.00;5106822;28;20032;-47
2021/11/15 03:36:38;;;;;;;29.02;17.00;;;;;;;6.31;68.88;93988.47;5112037;28;20055;-46
2021/11/15 03:39:05;;;;;;;23.50;16.63;;;;;;;6.27;69.43;93991.47;5111491;28;20080;-47
2021/11/15 03:41:34;;;;;;;27.83;17.95;;;;;;;6.20;69.63;93991.25;5111368;28;20531;-47
2021/11/15 03:44:00;;;;;;;28.77;18.70;;;;;;;6.20;69.69;93992.00;5110902;28;20024;-47
2021/11/15 03:46:26;;;;;;;30.60;19.55;;;;;;;6.17;69.61;93998.53;5111146;28;20036;-47
2021/11/15 03:48:52;;;;;;;30.80;18.50;;;;;;;6.09;69.72;93978.38;5111099;28;20023;-49
2021/11/15 03:51:18;;;;;;;28.00;17.83;;;;;;;6.17;69.79;93998.53;5111041;28;20027;-48
2021/11/15 03:53:44;;;;;;;35.13;20.70;;;;;;;6.34;69.87;94007.41;5111403;28;20028;-45
2021/11/15 03:56:12;;;;;;;29.83;18.10;;;;;;;6.25;70.01;93991.25;5111077;28;20411;-46
2021/11/15 03:58:39;;;;;;;33.45;19.80;;;;;;;6.17;69.94;93984.06;5111347;28;20511;-47
2021/11/15 04:01:05;;;;;;;46.17;27.70;;;;;;;6.02;70.45;93987.88;5111019;28;20488;-46
2021/11/15 04:03:33;;;;;;;35.28;20.77;;;;;;;6.23;70.57;94006.72;5111247;28;20080;-45
2021/11/15 04:06:03;;;;;;;48.60;24.88;;;;;;;6.13;70.52;94001.53;5110637;28;20526;-46
2021/11/15 04:08:30;;;;;;;41.15;24.15;;;;;;;6.21;70.81;94003.72;5110909;28;20026;-44
2021/11/15 04:10:56;;;;;;;40.10;23.98;;;;;;;6.35;70.43;94002.66;5110932;28;20055;-47
2021/11/15 04:13:34;;;;;;;37.15;23.25;;;;;;;6.35;70.10;94003.41;5110621;28;20023;-46
2021/11/15 04:16:03;;;;;;;34.95;20.55;;;;;;;6.45;69.68;94012.06;5110955;28;20032;-46
2021/11/15 04:18:31;;;;;;;31.77;20.00;;;;;;;6.39;69.70;94012.09;5111052;28;20027;-45
2021/11/15 04:20:58;;;;;;;33.47;20.33;;;;;;;6.17;70.31;93990.31;5110771;28;20020;-45
2021/11/15 04:23:24;;;;;;;27.85;17.80;;;;;;;6.30;70.54;94011.66;5110961;28;20042;-45
2021/11/15 04:25:50;;;;;;;32.58;20.35;;;;;;;6.36;70.03;94007.63;5110621;28;20385;-43
2021/11/15 04:28:15;;;;;;;32.63;19.98;;;;;;;6.43;69.56;94003.59;5110611;28;20057;-44
2021/11/15 04:30:41;;;;;;;33.58;22.85;;;;;;;6.09;70.96;93997.56;5110857;28;20480;-45
2021/11/15 04:33:06;;;;;;;34.53;22.40;;;;;;;5.81;72.59;94002.38;5110503;28;20020;-45
2021/11/15 04:35:33;;;;;;;29.05;19.23;;;;;;;6.01;71.68;94010.31;5110562;28;20030;-45
2021/11/15 04:37:59;;;;;;;34.13;21.65;;;;;;;6.01;71.22;94011.06;5110427;28;20027;-46
2021/11/15 04:40:25;;;;;;;35.72;21.20;;;;;;;5.94;71.53;94017.06;5107257;28;20556;-44
2021/11/15 04:42:50;;;;;;;31.88;21.10;;;;;;;6.15;71.36;94008.50;5109590;28;20102;-45
2021/11/15 04:45:16;;;;;;;35.78;22.67;;;;;;;6.21;70.58;94014.69;5109527;28;20071;-45
2021/11/15 04:47:42;;;;;;;73.55;24.05;;;;;;;6.31;70.11;94010.41;5108169;28;20076;-44
2021/11/15 04:50:09;;;;;;;35.13;22.70;;;;;;;6.08;71.35;94015.28;5107404;28;20481;-44
2021/11/15 04:52:35;;;;;;;39.88;24.73;;;;;;;6.07;71.34;94014.50;5107860;28;20019;-45
2021/11/15 04:55:02;;;;;;;48.08;21.65;;;;;;;6.04;72.27;94015.50;5108738;28;20497;-44
2021/11/15 04:57:27;;;;;;;32.90;21.02;;;;;;;6.05;71.99;94019.75;5109862;28;20045;-45
2021/11/15 04:59:53;;;;;;;40.28;24.90;;;;;;;5.96;71.96;94014.56;5109837;28;20025;-45
2021/11/15 05:02:19;;;;;;;28.67;19.77;;;;;;;6.20;71.48;94015.94;5110099;28;20016;-46
2021/11/15 05:04:45;;;;;;;29.67;19.70;;;;;;;6.22;71.21;94019.66;5110097;28;20018;-46
2021/11/15 05:07:10;;;;;;;31.00;20.75;;;;;;;6.26;70.62;94028.38;5110020;28;20019;-46
2021/11/15 05:09:36;;;;;;;29.20;20.13;;;;;;;6.01;71.02;94027.50;5110050;28;20420;-45
2021/11/15 05:12:03;;;;;;;29.55;19.58;;;;;;;6.03;71.34;94040.69;5108868;28;20594;-45
2021/11/15 05:14:29;;;;;;;37.35;24.17;;;;;;;6.03;71.50;94030.50;5109681;28;20507;-46
2021/11/15 05:16:55;;;;;;;32.67;21.25;;;;;;;6.06;71.26;94039.69;5110731;28;20020;-45
2021/11/15 05:19:20;;;;;;;39.45;25.05;;;;;;;6.14;71.64;94057.09;5113544;28;20035;-45
2021/11/15 05:21:45;;;;;;;38.35;23.73;;;;;;;6.20;71.47;94059.81;5113879;28;20023;-46
2021/11/15 05:24:11;;;;;;;36.72;24.30;;;;;;;5.75;72.97;94048.25;5114003;28;20036;-45
2021/11/15 05:26:37;;;;;;;44.63;28.40;;;;;;;5.83;73.06;94052.69;5102591;28;20051;-45
2021/11/15 05:29:03;;;;;;;61.75;35.65;;;;;;;5.90;72.65;94063.19;5105708;28;20036;-46
2021/11/15 05:31:30;;;;;;;50.42;29.50;;;;;;;5.98;72.47;94066.13;5096666;28;20020;-44
2021/11/15 05:33:55;;;;;;;50.28;30.95;;;;;;;5.98;72.20;94072.34;5113386;28;20027;-45
2021/11/15 05:36:21;;;;;;;50.35;29.02;;;;;;;6.07;71.97;94069.34;5113853;28;20408;-45
2021/11/15 05:38:46;;;;;;;40.65;25.83;;;;;;;6.12;71.57;94067.84;5098431;28;20032;-44
2021/11/15 05:41:12;;;;;;;45.03;27.33;;;;;;;5.87;72.68;94077.13;5093682;28;20108;-44
2021/11/15 05:43:37;;;;;;;38.80;23.55;;;;;;;5.87;72.36;94077.88;5103727;28;20115;-45
2021/11/15 05:46:03;;;;;;;40.20;25.65;;;;;;;5.86;72.78;94079.13;5110295;28;20043;-45
2021/11/15 05:48:28;;;;;;;37.25;24.73;;;;;;;5.85;72.66;94079.63;5112635;28;20609;-44
2021/11/15 05:50:54;;;;;;;40.13;25.45;;;;;;;5.95;72.32;94089.84;5107096;28;20028;-44
2021/11/15 05:53:19;;;;;;;50.25;31.25;;;;;;;5.76;73.18;94088.09;5108086;28;20032;-44
2021/11/15 05:55:45;;;;;;;59.15;36.58;;;;;;;5.80;73.35;94089.34;5113250;28;20404;-45
2021/11/15 05:58:10;;;;;;;46.13;29.25;;;;;;;5.75;73.14;94090.09;5098316;28;20121;-43
2021/11/15 06:00:37;;;;;;;45.97;28.05;;;;;;;5.69;72.98;94089.38;5091127;28;20055;-45
2021/11/15 06:03:02;;;;;;;40.60;27.67;;;;;;;5.75;73.18;94098.31;5110265;28;20095;-44
2021/11/15 06:05:28;;;;;;;39.60;26.25;;;;;;;5.94;72.72;94093.06;5111390;28;20644;-44
2021/11/15 06:07:54;;;;;;;49.47;29.10;;;;;;;6.04;72.56;94103.22;5111177;28;20024;-42
2021/11/15 06:10:21;;;;;;;38.72;24.55;;;;;;;6.10;72.21;94103.97;5110983;28;20422;-42
2021/11/15 06:12:47;;;;;;;37.42;23.60;;;;;;;6.23;72.31;94110.91;5111163;28;20023;-42
2021/11/15 06:15:15;;;;;;;40.47;25.60;;;;;;;6.26;71.66;94107.16;5111210;28;20404;-41
2021/11/15 06:17:41;;;;;;;36.05;24.00;;;;;;;6.21;71.41;94108.69;5110774;28;20032;-43
2021/11/15 06:20:08;;;;;;;43.65;27.30;;;;;;;6.26;71.61;94101.69;5110530;28;20075;-42
2021/11/15 06:22:34;;;;;;;34.10;21.85;;;;;;;6.01;72.63;94104.25;5106451;27;20106;-45
2021/11/15 06:24:59;;;;;;;38.40;22.52;;;;;;;5.86;73.25;94109.28;5109787;28;20255;-44
2021/11/15 06:27:25;;;;;;;34.30;21.10;;;;;;;5.94;73.21;94115.72;5109300;28;20027;-45
2021/11/15 06:29:50;;;;;;;34.38;21.70;;;;;;;6.11;72.76;94118.41;5109608;28;20065;-46
2021/11/15 06:32:16;;;;;;;29.80;19.88;;;;;;;6.18;72.40;94117.16;5109156;28;20709;-44
2021/11/15 06:34:42;;;;;;;31.35;19.52;;;;;;;6.39;71.78;94112.84;5108960;27;20032;-46
2021/11/15 06:37:08;;;;;;;37.25;26.55;;;;;;;6.61;71.32;94120.94;5089833;28;20164;-48
2021/11/15 06:39:34;;;;;;;45.00;26.95;;;;;;;6.67;71.07;94129.91;5089244;28;20070;-49
2021/11/15 06:42:00;;;;;;;52.50;26.58;;;;;;;6.75;70.88;94117.16;5088559;28;20567;-50
2021/11/15 06:44:26;;;;;;;33.13;21.27;;;;;;;6.85;70.31;94115.56;5092196;28;20040;-48
2021/11/15 06:46:53;;;;;;;44.95;29.02;;;;;;;6.75;69.91;94108.91;5107268;28;20075;-46
2021/11/15 06:49:18;;;;;;;38.28;27.30;;;;;;;6.97;69.60;94117.00;5102921;28;20032;-46
2021/11/15 06:51:44;;;;;;;100.55;43.65;;;;;;;6.88;69.97;94111.81;5106639;28;20038;-45
2021/11/15 06:54:10;;;;;;;58.03;30.13;;;;;;;7.14;69.01;94128.63;5094347;28;20115;-46
2021/11/15 06:56:36;;;;;;;38.40;23.30;;;;;;;7.17;69.07;94126.88;5088084;28;20111;-47
2021/11/15 06:59:02;;;;;;;40.15;25.33;;;;;;;7.23;68.65;94127.56;5088515;28;20082;-45
2021/11/15 07:01:27;;;;;;;32.70;23.20;;;;;;;7.51;68.13;94128.09;5088646;28;20032;-45
2021/11/15 07:03:53;;;;;;;42.47;28.00;;;;;;;7.72;65.98;94101.66;5088288;28;20089;-44
2021/11/15 07:06:19;;;;;;;51.65;32.33;;;;;;;8.11;65.59;94123.25;5072999;28;20023;-44
2021/11/15 07:08:44;;;;;;;42.20;28.02;;;;;;;8.50;64.36;94131.09;5088682;28;20032;-44
2021/11/15 07:11:10;;;;;;;37.17;25.23;;;;;;;8.77;63.46;94133.50;5088528;28;20077;-44
2021/11/15 07:13:35;;;;;;;36.65;25.92;;;;;;;8.93;62.62;94129.78;5088281;28;20061;-45
2021/11/15 07:16:01;;;;;;;37.55;25.83;;;;;;;9.05;62.28;94136.63;5087878;28;20165;-46
2021/11/15 07:18:28;;;;;;;41.65;27.67;;;;;;;9.13;62.10;94134.03;5088294;28;20024;-45
2021/11/15 07:20:54;;;;;;;32.15;23.83;;;;;;;9.34;61.80;94134.19;5088150;28;20094;-45
2021/11/15 07:23:20;;;;;;;32.08;21.90;;;;;;;9.60;60.89;94140.56;5088178;28;20028;-46
2021/11/15 07:25:46;;;;;;;45.50;24.92;;;;;;;9.78;60.19;94137.00;5094685;28;20028;-46
2021/11/15 07:28:12;;;;;;;30.73;22.85;;;;;;;9.98;59.29;94135.69;5107697;28;20092;-46
2021/11/15 07:30:38;;;;;;;50.28;23.08;;;;;;;10.18;58.89;94126.78;5107865;28;20085;-46
2021/11/15 07:33:04;;;;;;;31.33;22.52;;;;;;;10.62;58.52;94133.47;5108422;28;20532;-49
2021/11/15 07:35:30;;;;;;;36.97;26.42;;;;;;;11.08;56.85;94123.72;5108435;28;20026;-45
2021/11/15 07:37:55;;;;;;;43.42;27.80;;;;;;;11.53;55.25;94126.97;5108267;28;20111;-45
2021/11/15 07:40:21;;;;;;;28.83;21.50;;;;;;;11.92;54.16;94126.78;5106990;28;20781;-46
2021/11/15 07:42:48;;;;;;;31.63;21.23;;;;;;;12.18;52.88;94121.09;5106678;28;20030;-46
2021/11/15 07:45:15;;;;;;;23.85;18.27;;;;;;;12.40;51.58;94122.53;5107850;28;20047;-46
2021/11/15 07:47:40;;;;;;;30.42;20.17;;;;;;;12.40;52.21;94116.25;5108220;28;20035;-49
2021/11/15 07:50:07;;;;;;;22.75;15.88;;;;;;;12.69;50.90;94121.22;5108264;28;20084;-47
2021/11/15 07:52:35;;;;;;;21.45;15.05;;;;;;;13.10;48.86;94116.81;5108198;28;20103;-47
2021/11/15 07:55:02;;;;;;;18.65;13.40;;;;;;;13.05;47.66;94107.38;5107651;28;20055;-48
2021/11/15 07:57:28;;;;;;;18.02;14.00;;;;;;;13.43;47.62;94115.78;5107983;28;20047;-47
2021/11/15 07:59:53;;;;;;;18.95;14.73;;;;;;;14.26;44.93;94111.03;5107636;28;20051;-47
2021/11/15 08:02:19;;;;;;;18.20;14.25;;;;;;;14.46;44.67;94114.19;5092836;28;20032;-47
2021/11/15 08:04:46;;;;;;;20.17;14.52;;;;;;;15.12;42.31;94108.97;5105697;28;20056;-45
2021/11/15 08:07:12;;;;;;;19.95;13.63;;;;;;;15.95;40.73;94116.88;5107613;28;20046;-49
2021/11/15 08:09:38;;;;;;;26.25;15.25;;;;;;;16.53;40.62;94112.72;5107951;28;20028;-45
2021/11/15 08:12:08;;;;;;;17.23;13.63;;;;;;;15.65;39.91;94108.75;5107737;28;20030;-44
2021/11/15 08:14:35;;;;;;;13.90;12.02;;;;;;;15.92;40.42;94118.00;5107538;28;20036;-46
2021/11/15 08:17:01;;;;;;;12.30;11.00;;;;;;;16.17;38.25;94107.63;5107958;28;20455;-46
2021/11/15 08:19:27;;;;;;;13.25;11.38;;;;;;;16.25;38.16;94122.22;5106415;28;20023;-47
2021/11/15 08:21:52;;;;;;;13.02;11.60;;;;;;;15.51;39.23;94115.84;5107918;28;20110;-47
2021/11/15 08:24:18;;;;;;;12.40;10.18;;;;;;;14.92;40.86;94121.13;5107783;28;20085;-47
2021/11/15 08:26:56;;;;;;;14.98;11.45;;;;;;;14.38;41.72;94116.97;5107939;28;20115;-47
2021/11/15 08:29:22;;;;;;;16.40;12.13;;;;;;;14.20;41.74;94118.06;5107409;28;20035;-46
2021/11/15 08:31:48;;;;;;;14.05;12.07;;;;;;;13.63;43.38;94128.78;5107712;28;20036;-45
2021/11/15 08:34:14;;;;;;;17.13;11.52;;;;;;;13.11;44.13;94127.34;5107138;28;20811;-44
2021/11/15 08:36:41;;;;;;;13.70;10.48;;;;;;;13.17;44.26;94125.13;5089088;28;20036;-47
2021/11/15 08:39:17;;;;;;;13.07;10.20;;;;;;;13.43;44.16;94122.06;5089179;28;20039;-44
2021/11/15 08:41:47;;;;;;;12.82;11.20;;;;;;;14.64;41.97;94126.94;5107472;28;20031;-44
2021/11/15 08:44:16;;;;;;;16.80;11.65;;;;;;;16.06;39.25;94124.03;5106865;28;20102;-46
2021/11/15 08:46:45;;;;;;;11.75;9.88;;;;;;;16.19;37.39;94118.94;5107086;28;20055;-44
2021/11/15 08:49:13;;;;;;;13.10;10.18;;;;;;;16.00;37.38;94107.56;5107637;28;20342;-46
2021/11/15 08:51:39;;;;;;;9.93;8.97;;;;;;;16.23;37.13;94119.25;5110324;28;20461;-45
2021/11/15 08:54:08;;;;;;;10.63;9.52;;;;;;;16.52;36.33;94117.53;5111748;28;20076;-46
2021/11/15 08:56:35;;;;;;;16.08;10.27;;;;;;;16.75;36.71;94111.00;5111282;28;20036;-45
2021/11/15 08:59:00;;;;;;;11.32;10.13;;;;;;;17.90;35.37;94121.69;5111387;28;20563;-45
2021/11/15 09:01:26;;;;;;;12.38;9.65;;;;;;;18.88;32.87;94114.47;5111407;28;20030;-46
2021/11/15 09:03:55;;;;;;;13.25;11.05;;;;;;;19.00;31.49;94113.91;5111667;28;20159;-46
2021/11/15 09:06:22;;;;;;;;;;;;;;;19.09;32.47;94116.72;5111962;28;20027;-46
2021/11/15 09:08:48;;;;;;;11.80;9.52;;;;;;;19.31;31.83;94109.19;5111388;28;19911;-46
2021/11/15 09:11:14;;;;;;;12.98;10.25;;;;;;;19.19;32.59;94120.22;5111035;28;20511;-51
2021/11/15 09:13:42;;;;;;;9.80;8.77;;;;;;;19.70;31.29;94110.63;5110994;28;20039;-46
2021/11/15 09:16:07;;;;;;;9.48;8.13;;;;;;;20.15;29.54;94118.00;5111125;28;20051;-45
2021/11/15 09:18:34;;;;;;;10.25;9.25;;;;;;;20.50;29.71;94101.50;5110957;28;20063;-45
2021/11/15 09:21:01;;;;;;;10.30;8.65;;;;;;;21.01;28.10;94109.13;5109929;28;20028;-43
2021/11/15 09:23:27;;;;;;;12.30;9.32;;;;;;;21.02;28.50;94110.63;5111486;28;20055;-46
2021/11/15 09:25:53;;;;;;;12.43;10.25;;;;;;;20.50;29.27;94101.50;5111046;28;20114;-44
2021/11/15 09:28:19;;;;;;;21.63;9.75;;;;;;;20.08;29.47;94096.50;5111014;28;20106;-45
2021/11/15 09:30:47;;;;;;;13.15;9.75;;;;;;;18.74;31.40;94109.91;5110732;28;20757;-44
2021/11/15 09:33:13;;;;;;;12.02;10.77;;;;;;;17.83;32.96;94127.38;5110261;28;20071;-45
2021/11/15 09:35:44;;;;;;;11.18;9.75;;;;;;;17.50;33.83;94120.56;5095307;28;20139;-42
2021/11/15 09:38:09;;;;;;;11.80;9.68;;;;;;;16.84;35.12;94119.47;5089958;28;20028;-44
2021/11/15 09:40:35;;;;;;;13.43;8.95;;;;;;;16.93;34.54;94112.50;5106935;28;20036;-46
2021/11/15 09:43:00;;;;;;;12.82;11.32;;;;;;;16.28;35.93;94109.94;5109371;28;20027;-43
2021/11/15 09:45:27;;;;;;;12.18;9.77;;;;;;;15.99;36.54;94111.66;5110541;28;20054;-47
2021/11/15 09:47:55;;;;;;;13.25;10.50;;;;;;;16.23;36.44;94116.47;5104620;28;20067;-47
2021/11/15 09:50:21;;;;;;;11.10;9.35;;;;;;;15.99;37.10;94110.91;5109970;28;20031;-46
2021/11/15 09:52:47;;;;;;;11.45;10.25;;;;;;;16.03;36.76;94114.78;5110744;28;20028;-46
2021/11/15 09:55:12;;;;;;;11.65;9.98;;;;;;;15.53;37.51;94110.47;5109752;28;20054;-47
2021/11/15 09:57:41;;;;;;;15.77;12.05;;;;;;;15.24;38.46;94112.84;5110379;28;20102;-45
2021/11/15 10:00:10;;;;;;;14.52;11.48;;;;;;;14.93;39.45;94117.78;5110115;28;20038;-46
2021/11/15 10:02:37;;;;;;;12.50;10.52;;;;;;;15.45;38.63;94104.22;5109158;28;20039;-48
2021/11/15 10:05:07;;;;;;;12.95;9.88;;;;;;;15.80;38.17;94114.22;5109344;28;20043;-48
2021/11/15 10:07:45;;;;;;;11.95;10.43;;;;;;;15.77;37.88;94110.50;5110727;28;20031;-48
2021/11/15 10:10:24;;;;;;;14.82;11.95;;;;;;;16.35;38.00;94114.69;5110275;28;20023;-45
2021/11/15 10:13:02;;;;;;;18.67;13.05;;;;;;;16.86;37.75;94125.19;5102140;28;20066;-46
2021/11/15 10:15:28;;;;;;;14.38;11.00;;;;;;;16.92;38.29;94139.63;5090204;28;20036;-44
2021/11/15 10:17:54;;;;;;;13.30;10.10;;;;;;;16.62;38.38;94135.13;5093025;28;20893;-44
2021/11/15 10:20:21;;;;;;;38.95;13.82;;;;;;;16.33;38.95;94136.09;5112938;28;20034;-44
2021/11/15 10:22:48;;;;;;;30.15;22.23;;;;;;;15.67;39.80;94134.72;5113010;28;20039;-45
2021/11/15 10:25:13;;;;;;;11.82;9.88;;;;;;;14.91;40.85;94125.94;5113206;28;20073;-44
2021/11/15 10:27:39;;;;;;;11.88;8.60;;;;;;;14.50;42.07;94143.06;5112800;28;20450;-43
2021/11/15 10:30:13;;;;;;;15.00;11.25;;;;;;;14.06;43.70;94142.50;5113144;28;20027;-44
2021/11/15 10:32:43;;;;;;;13.43;10.15;;;;;;;14.29;43.91;94145.31;5112730;28;20027;-45
2021/11/15 10:35:09;;;;;;;13.20;10.93;;;;;;;14.49;43.51;94138.09;5113071;28;20027;-44
2021/11/15 10:37:37;;;;;;;15.77;11.27;;;;;;;14.61;42.80;94141.94;5112685;28;20519;-44
2021/11/15 10:40:03;;;;;;;15.30;9.77;;;;;;;14.11;42.81;94129.75;5112853;28;20019;-42
2021/11/15 10:42:32;;;;;;;14.98;9.80;;;;;;;13.94;44.18;94137.88;5112337;28;20515;-41
2021/11/15 10:44:59;;;;;;;9.63;7.97;;;;;;;14.23;43.81;94142.69;5112688;28;20024;-47
2021/11/15 10:47:29;;;;;;;12.55;7.93;;;;;;;14.38;43.22;94139.19;5112522;28;20495;-42
2021/11/15 10:50:27;;;;;;;27.40;10.48;;;;;;;14.51;43.73;94147.31;5108319;28;20055;-43
2021/11/15 10:53:07;;;;;;;20.45;14.63;;;;;;;14.26;43.00;94149.91;5094916;28;20046;-43
2021/11/15 10:55:36;;;;;;;10.20;8.05;;;;;;;13.81;44.20;94151.94;5112181;28;20028;-42
2021/11/15 10:58:19;;;;;;;10.43;9.32;;;;;;;13.84;44.71;94151.56;5112184;28;20035;-43
2021/11/15 11:00:55;;;;;;;17.50;12.48;;;;;;;13.75;44.59;94154.16;5112217;28;20567;-42
2021/11/15 11:03:24;;;;;;;15.88;10.65;;;;;;;13.78;44.36;94153.78;5112199;28;20024;-43
2021/11/15 11:05:52;;;;;;;17.25;12.23;;;;;;;14.02;43.73;94160.81;5112533;28;20392;-44
2021/11/15 11:08:22;;;;;;;15.77;10.65;;;;;;;14.15;43.70;94155.09;5112046;28;20111;-44
2021/11/15 11:11:08;;;;;;;10.50;8.60;;;;;;;14.86;43.25;94153.94;5112083;28;20115;-44
2021/11/15 11:13:52;;;;;;;18.35;9.07;;;;;;;14.72;41.98;94150.63;5112024;28;20056;-43
2021/11/15 11:16:18;;;;;;;9.98;8.10;;;;;;;14.48;42.18;94154.00;5111365;28;20110;-44
2021/11/15 11:24:10;;;;;;;70.75;13.35;;;;;;;14.24;42.97;94160.84;5112021;28;20467;-42
2021/11/15 11:26:37;;;;;;;32.60;12.25;;;;;;;13.75;44.18;94171.53;5111633;28;20734;-42
2021/11/15 11:29:09;;;;;;;15.02;10.18;;;;;;;13.31;45.42;94167.34;5111726;28;20565;-42